Time;durP1;ratioP1;P1;durP2;ratioP2;P2;SDS_P1;SDS_P2;PMS_P1;PMS_P2;Temp;Humidity;BMP_temperature;BMP_pressure;BME280_temperature;BME280_humidity;BME280_pressure;Samples;Min_cycle;Max_cycle;Signal;HPM_P1;HPM_P2
2023/05/15 00:00:09;;;;;;;2.07;1.80;;;;;;;13.88;nan;99190.00;5067098;28;20265;-83
2023/05/15 00:02:40;;;;;;;2.63;2.15;;;;;;;13.86;nan;99184.00;5065963;28;20234;-84
2023/05/15 00:05:06;;;;;;;2.77;2.27;;;;;;;13.87;nan;99190.13;5067531;28;20584;-83
2023/05/15 00:07:32;;;;;;;6.40;2.40;;;;;;;13.85;nan;99195.56;5066698;28;20600;-84
2023/05/15 00:09:58;;;;;;;2.47;2.28;;;;;;;13.80;nan;99194.22;5066666;28;21011;-84
2023/05/15 00:12:23;;;;;;;1.70;1.60;;;;;;;13.75;nan;99194.63;5066226;28;20212;-83
2023/05/15 00:14:49;;;;;;;1.93;1.40;;;;;;;13.71;nan;99204.59;5067981;28;20328;-83
2023/05/15 00:17:14;;;;;;;2.73;1.90;;;;;;;13.69;nan;99195.13;5069690;28;20259;-82
2023/05/15 00:19:40;;;;;;;2.27;2.07;;;;;;;13.62;nan;99202.72;5070908;28;20345;-83
2023/05/15 00:22:05;;;;;;;2.23;2.03;;;;;;;13.56;nan;99195.31;5069351;28;20881;-82
2023/05/15 00:24:30;;;;;;;2.27;2.10;;;;;;;13.53;nan;99192.94;5068601;28;20247;-82
2023/05/15 00:26:59;;;;;;;2.40;2.20;;;;;;;13.52;nan;99195.69;5067581;28;20278;-84
2023/05/15 00:29:24;;;;;;;3.10;2.63;;;;;;;13.49;nan;99194.16;5049743;28;20227;-84
2023/05/15 00:31:49;;;;;;;2.83;2.63;;;;;;;13.46;nan;99184.69;5050823;28;20231;-84
2023/05/15 00:34:15;;;;;;;1.90;1.70;;;;;;;13.43;nan;99184.94;5051461;28;20216;-83
2023/05/15 00:36:41;;;;;;;2.17;1.97;;;;;;;13.41;nan;99202.69;5069873;28;20479;-84
2023/05/15 00:39:06;;;;;;;2.70;2.20;;;;;;;13.40;nan;99197.56;5069312;28;20242;-83
2023/05/15 00:41:33;;;;;;;1.70;1.43;;;;;;;13.38;nan;99196.84;5068978;28;20591;-82
2023/05/15 00:43:59;;;;;;;4.57;2.42;;;;;;;13.38;nan;99197.66;5068822;28;20240;-82
2023/05/15 00:46:27;;;;;;;6.28;2.50;;;;;;;13.39;nan;99198.50;5069780;28;20637;-83
2023/05/15 00:48:54;;;;;;;1.95;1.35;;;;;;;13.42;nan;99195.59;5068409;28;20224;-84
2023/05/15 00:51:20;;;;;;;2.30;2.00;;;;;;;13.43;nan;99187.56;5069377;28;20232;-84
2023/05/15 00:53:46;;;;;;;2.37;2.17;;;;;;;13.47;nan;99196.06;5069483;28;20208;-84
2023/05/15 00:56:11;;;;;;;3.10;2.10;;;;;;;13.52;nan;99182.50;5068452;28;20220;-83
2023/05/15 00:58:37;;;;;;;3.00;1.93;;;;;;;13.56;nan;99187.41;5069700;28;20494;-85
2023/05/15 01:01:03;;;;;;;2.50;1.87;;;;;;;13.57;nan;99185.59;5073001;28;20262;-82
2023/05/15 01:03:29;;;;;;;3.15;2.20;;;;;;;13.58;nan;99190.72;5055888;28;20526;-81
2023/05/15 01:05:54;;;;;;;5.18;2.20;;;;;;;13.57;nan;99193.53;5070363;28;20850;-83
2023/05/15 01:08:44;;;;;;;1.77;1.63;;;;;;;13.52;nan;99193.88;5067930;28;20239;-84
2023/05/15 01:11:12;;;;;;;2.05;1.80;;;;;;;13.46;nan;99195.22;5052915;28;20708;-81
2023/05/15 01:13:37;;;;;;;6.00;1.83;;;;;;;13.44;nan;99193.69;5063548;28;20656;-83
2023/05/15 01:16:05;;;;;;;2.80;2.00;;;;;;;13.45;nan;99200.66;5071441;28;20200;-83
2023/05/15 01:18:33;;;;;;;1.55;1.45;;;;;;;13.42;nan;99193.81;5052212;28;20243;-81
2023/05/15 01:21:04;;;;;;;2.78;2.10;;;;;;;13.43;nan;99198.13;5070735;28;20215;-84
2023/05/15 01:24:17;;;;;;;2.45;1.75;;;;;;;13.45;nan;99198.84;5072390;28;20591;-83
2023/05/15 01:27:07;;;;;;;2.25;2.05;;;;;;;13.47;nan;99196.94;5001569;28;20242;-83
2023/05/15 01:29:42;;;;;;;3.42;2.60;;;;;;;13.48;nan;99184.56;5001513;28;20278;-82
2023/05/15 01:32:17;;;;;;;3.35;2.15;;;;;;;13.48;nan;99190.69;5050957;28;20232;-84
2023/05/15 01:35:12;;;;;;;4.18;2.72;;;;;;;13.42;nan;99187.69;5071576;28;21096;-82
2023/05/15 01:37:44;;;;;;;2.90;2.42;;;;;;;13.36;nan;99196.94;5054659;28;20219;-83
2023/05/15 01:40:13;;;;;;;4.55;2.17;;;;;;;13.37;nan;99185.44;5053783;28;20839;-83
2023/05/15 01:42:45;;;;;;;2.78;2.58;;;;;;;13.40;nan;99190.47;5072283;28;20715;-83
2023/05/15 01:45:11;;;;;;;3.45;2.65;;;;;;;13.42;nan;99188.56;5070864;28;20232;-81
2023/05/15 01:47:40;;;;;;;2.50;2.30;;;;;;;13.46;nan;99178.56;5069348;28;20392;-82
2023/05/15 01:50:10;;;;;;;2.38;2.17;;;;;;;13.46;nan;99179.41;5068501;28;20262;-83
2023/05/15 01:52:40;;;;;;;3.38;2.38;;;;;;;13.44;nan;99178.69;5068529;28;20216;-82
2023/05/15 01:55:07;;;;;;;3.75;2.20;;;;;;;13.38;nan;99191.56;5070043;28;20310;-81
2023/05/15 01:57:34;;;;;;;2.65;2.15;;;;;;;13.28;nan;99181.78;5072136;28;20220;-82
2023/05/15 02:00:01;;;;;;;3.00;2.50;;;;;;;13.21;nan;99187.63;5070590;28;20629;-82
2023/05/15 02:02:29;;;;;;;2.58;2.30;;;;;;;13.13;nan;99182.97;5052626;28;20475;-83
2023/05/15 02:04:55;;;;;;;3.22;2.30;;;;;;;13.09;nan;99178.91;5071214;28;20485;-83
2023/05/15 02:07:22;;;;;;;3.10;2.60;;;;;;;13.10;nan;99175.31;5075393;22;20242;-85
2023/05/15 02:09:50;;;;;;;3.25;2.17;;;;;;;13.14;nan;99179.38;5050314;28;20235;-85
2023/05/15 02:12:16;;;;;;;3.63;3.17;;;;;;;13.11;nan;99173.50;5054559;28;20237;-85
2023/05/15 02:14:42;;;;;;;2.83;2.40;;;;;;;13.00;nan;99174.38;5066720;28;20889;-85
2023/05/15 02:17:08;;;;;;;2.03;1.83;;;;;;;12.92;nan;99171.53;5079153;28;20376;-84
2023/05/15 02:19:33;;;;;;;2.63;2.43;;;;;;;12.91;nan;99177.72;5079772;28;21039;-82
2023/05/15 02:22:01;;;;;;;2.50;2.30;;;;;;;12.91;nan;99180.38;5070178;28;20211;-86
2023/05/15 02:24:26;;;;;;;2.23;2.03;;;;;;;12.91;nan;99172.47;5070323;28;20228;-86
2023/05/15 02:27:08;;;;;;;2.23;2.00;;;;;;;12.94;nan;99177.50;5083992;28;20286;-85
2023/05/15 02:29:48;;;;;;;3.45;2.60;;;;;;;12.98;nan;99174.50;5083387;28;20224;-84
2023/05/15 02:32:26;;;;;;;2.50;2.30;;;;;;;13.03;nan;99172.31;5087786;28;20224;-84
2023/05/15 02:35:13;;;;;;;3.15;2.22;;;;;;;13.08;nan;99174.59;5067704;28;20288;-84
2023/05/15 02:37:41;;;;;;;3.60;2.25;;;;;;;13.12;nan;99177.81;5082463;28;20321;-83
2023/05/15 02:40:10;;;;;;;3.72;2.45;;;;;;;13.15;nan;99174.91;5082242;28;20232;-84
2023/05/15 02:42:39;;;;;;;2.63;2.35;;;;;;;13.15;nan;99181.06;5066625;28;20212;-83
2023/05/15 02:45:06;;;;;;;2.92;2.72;;;;;;;13.17;nan;99178.28;5066523;28;20227;-86
2023/05/15 02:47:32;;;;;;;3.20;2.30;;;;;;;13.18;nan;99174.69;5064177;28;20209;-85
2023/05/15 02:50:00;;;;;;;3.28;2.75;;;;;;;13.16;nan;99172.16;5069903;28;20212;-86
2023/05/15 02:52:25;;;;;;;3.50;2.55;;;;;;;13.11;nan;99170.88;5082902;28;20793;-83
2023/05/15 02:54:51;;;;;;;2.87;2.47;;;;;;;13.05;nan;99162.50;5083645;28;20212;-83
2023/05/15 02:57:16;;;;;;;6.37;3.87;;;;;;;13.03;nan;99166.22;5083986;28;20303;-83
2023/05/15 02:59:42;;;;;;;4.80;2.43;;;;;;;12.99;nan;99168.28;5071444;28;20240;-85
2023/05/15 03:02:07;;;;;;;2.73;2.53;;;;;;;12.97;nan;99164.91;5082036;28;20841;-85
2023/05/15 03:04:33;;;;;;;2.37;1.87;;;;;;;12.91;nan;99162.78;5067812;28;20205;-83
2023/05/15 03:06:58;;;;;;;3.20;2.30;;;;;;;12.84;nan;99167.69;5082367;28;20311;-85
2023/05/15 03:09:24;;;;;;;3.60;3.10;;;;;;;12.81;nan;99162.66;5088025;28;20242;-84
2023/05/15 03:11:49;;;;;;;3.43;2.30;;;;;;;12.80;nan;99170.72;5067269;28;20248;-85
2023/05/15 03:14:15;;;;;;;5.13;2.93;;;;;;;12.80;nan;99157.53;5068224;28;20470;-85
2023/05/15 03:16:41;;;;;;;2.77;2.40;;;;;;;12.79;nan;99164.59;5081869;28;20813;-85
2023/05/15 03:19:06;;;;;;;2.10;1.97;;;;;;;12.76;nan;99151.66;5068956;28;20238;-85
2023/05/15 03:21:33;;;;;;;3.43;2.67;;;;;;;12.73;nan;99151.91;5073701;28;20466;-85
2023/05/15 03:23:59;;;;;;;4.10;2.80;;;;;;;12.69;nan;99158.41;5072244;28;20212;-84
2023/05/15 03:26:25;;;;;;;3.43;2.43;;;;;;;12.65;nan;99154.31;5084491;28;20212;-85
2023/05/15 03:28:51;;;;;;;2.93;2.70;;;;;;;12.63;nan;99148.31;5083248;28;20492;-85
2023/05/15 03:31:17;;;;;;;14.57;2.80;;;;;;;12.59;nan;99155.63;5083916;28;20541;-82
2023/05/15 03:33:44;;;;;;;4.40;2.67;;;;;;;12.57;nan;99156.72;5069431;28;20287;-85
2023/05/15 03:36:10;;;;;;;3.17;2.53;;;;;;;12.51;nan;99160.69;5080977;28;20197;-86
2023/05/15 03:38:35;;;;;;;3.77;2.40;;;;;;;12.39;nan;99165.13;5082088;28;20250;-85
2023/05/15 03:41:01;;;;;;;2.33;2.13;;;;;;;12.27;nan;99160.78;5081269;28;20204;-86
2023/05/15 03:43:26;;;;;;;2.97;2.23;;;;;;;12.22;nan;99170.00;5080826;28;20981;-84
2023/05/15 03:45:51;;;;;;;2.90;2.67;;;;;;;12.18;nan;99167.63;5079620;28;20286;-85
2023/05/15 03:48:17;;;;;;;2.20;2.00;;;;;;;12.14;nan;99168.81;5065943;28;20232;-85
2023/05/15 03:50:44;;;;;;;2.10;1.90;;;;;;;12.11;nan;99178.75;5063803;28;20225;-84
2023/05/15 03:53:09;;;;;;;2.80;2.30;;;;;;;12.06;nan;99173.81;5064402;28;20224;-83
2023/05/15 03:55:34;;;;;;;3.77;2.13;;;;;;;12.01;nan;99173.34;5062074;28;20357;-84
2023/05/15 03:58:01;;;;;;;2.60;2.40;;;;;;;11.95;nan;99179.91;5079920;28;20344;-82
2023/05/15 04:00:26;;;;;;;2.20;1.95;;;;;;;11.92;nan;99174.03;5079346;28;20240;-84
2023/05/15 04:02:51;;;;;;;1.70;1.60;;;;;;;11.90;nan;99171.50;5081312;28;20226;-85
2023/05/15 04:05:18;;;;;;;1.97;1.83;;;;;;;11.90;nan;99175.94;5082065;28;20355;-85
2023/05/15 04:07:44;;;;;;;2.20;1.83;;;;;;;11.86;nan;99175.34;5080006;28;20418;-83
2023/05/15 04:10:09;;;;;;;2.30;2.10;;;;;;;11.82;nan;99179.13;5077424;28;20229;-86
2023/05/15 04:12:34;;;;;;;2.40;2.20;;;;;;;11.77;nan;99180.44;5075578;28;20389;-86
2023/05/15 04:15:20;;;;;;;2.20;2.00;;;;;;;11.74;nan;99182.31;5077305;28;20575;-85
2023/05/15 04:17:47;;;;;;;2.78;2.58;;;;;;;11.76;nan;99186.66;5076205;28;20624;-84
2023/05/15 04:20:14;;;;;;;3.45;2.72;;;;;;;11.79;nan;99179.34;5074714;28;20308;-84
2023/05/15 04:22:40;;;;;;;3.17;2.42;;;;;;;11.83;nan;99174.72;5076946;28;20208;-85
2023/05/15 04:25:06;;;;;;;3.20;1.80;;;;;;;11.86;nan;99179.78;5076458;28;20216;-85
2023/05/15 04:27:32;;;;;;;3.60;3.08;;;;;;;11.88;nan;99175.22;5076196;28;20727;-84
2023/05/15 04:29:58;;;;;;;2.90;2.60;;;;;;;11.91;nan;99185.53;5076880;28;20246;-84
2023/05/15 04:32:23;;;;;;;2.43;2.23;;;;;;;11.95;nan;99182.53;5077399;28;20631;-84
2023/05/15 04:34:48;;;;;;;3.95;2.80;;;;;;;12.04;nan;99193.31;5074283;28;21028;-85
2023/05/15 04:37:14;;;;;;;3.60;2.53;;;;;;;12.11;nan;99186.63;5075479;28;20222;-84
2023/05/15 04:39:39;;;;;;;2.87;2.27;;;;;;;12.21;nan;99187.63;5073020;28;20270;-83
2023/05/15 04:42:05;;;;;;;3.97;3.07;;;;;;;12.29;nan;99187.84;5074901;28;20351;-83
2023/05/15 04:44:31;;;;;;;3.13;2.83;;;;;;;12.37;nan;99189.91;5075149;28;20248;-83
2023/05/15 04:46:56;;;;;;;3.70;3.17;;;;;;;12.43;nan;99191.22;5075253;28;20715;-85
2023/05/15 04:49:21;;;;;;;4.20;2.97;;;;;;;12.47;nan;99188.19;5074897;28;20605;-86
2023/05/15 04:51:47;;;;;;;4.80;4.00;;;;;;;12.53;nan;99193.00;5073156;28;20216;-85
2023/05/15 04:54:12;;;;;;;4.30;3.90;;;;;;;12.56;nan;99190.13;5061559;28;20445;-85
2023/05/15 04:56:37;;;;;;;4.20;3.90;;;;;;;12.56;nan;99187.50;5073768;28;20270;-81
2023/05/15 04:59:03;;;;;;;3.70;3.10;;;;;;;12.57;nan;99188.34;5076357;28;20813;-81
2023/05/15 05:01:28;;;;;;;4.30;3.10;;;;;;;12.57;nan;99186.53;5072144;28;20231;-80
2023/05/15 05:03:53;;;;;;;3.80;3.47;;;;;;;12.61;nan;99189.78;5072619;28;20211;-81
2023/05/15 05:06:19;;;;;;;5.30;4.63;;;;;;;12.65;nan;99187.72;5071866;28;20936;-81
2023/05/15 05:08:44;;;;;;;3.30;3.10;;;;;;;12.77;nan;99186.75;5073759;28;20291;-81
2023/05/15 05:11:10;;;;;;;7.37;3.30;;;;;;;12.86;nan;99187.84;5073461;28;20221;-81
2023/05/15 05:13:35;;;;;;;4.60;3.27;;;;;;;12.89;nan;99183.16;5072293;28;20238;-80
2023/05/15 05:16:00;;;;;;;3.73;3.00;;;;;;;12.90;nan;99184.81;5070772;28;20215;-81
2023/05/15 05:18:26;;;;;;;4.43;3.07;;;;;;;12.90;nan;99182.19;5069926;28;20228;-81
2023/05/15 05:21:01;;;;;;;3.80;3.50;;;;;;;12.88;nan;99189.41;5073430;28;20216;-81
2023/05/15 05:23:27;;;;;;;3.42;2.83;;;;;;;12.89;nan;99187.59;5070469;28;20289;-80
2023/05/15 05:25:53;;;;;;;3.95;3.55;;;;;;;12.94;nan;99188.91;5073764;28;20307;-81
2023/05/15 05:28:18;;;;;;;4.13;3.10;;;;;;;13.01;nan;99187.41;5069906;28;20303;-81
2023/05/15 05:30:47;;;;;;;3.93;3.63;;;;;;;13.09;nan;99192.09;5073248;28;20234;-81
2023/05/15 05:33:13;;;;;;;4.78;4.25;;;;;;;13.16;nan;99187.16;5070425;28;20523;-81
2023/05/15 05:35:38;;;;;;;4.60;3.80;;;;;;;13.18;nan;99187.88;5067324;28;20295;-81
2023/05/15 05:38:04;;;;;;;3.73;2.80;;;;;;;13.19;nan;99184.28;5065904;28;20621;-81
2023/05/15 05:40:29;;;;;;;4.47;3.00;;;;;;;13.22;nan;99184.03;5063479;28;20215;-83
2023/05/15 05:42:59;;;;;;;3.17;2.87;;;;;;;13.23;nan;99186.53;5065596;28;20216;-79
2023/05/15 05:45:24;;;;;;;3.33;3.00;;;;;;;13.27;nan;99182.72;5061799;28;20716;-81
2023/05/15 05:47:50;;;;;;;4.37;2.93;;;;;;;13.33;nan;99184.00;5052162;28;20319;-81
2023/05/15 05:50:15;;;;;;;4.50;3.33;;;;;;;13.38;nan;99179.19;5069450;28;20311;-82
2023/05/15 05:52:41;;;;;;;5.20;3.10;;;;;;;13.44;nan;99181.31;5066740;28;20224;-82
2023/05/15 05:55:06;;;;;;;4.33;2.97;;;;;;;13.52;nan;99177.22;5070172;28;20396;-82
2023/05/15 05:57:32;;;;;;;5.40;4.27;;;;;;;13.59;nan;99176.59;5068531;28;20277;-81
2023/05/15 05:59:57;;;;;;;3.50;3.13;;;;;;;13.67;nan;99186.53;5064837;28;20292;-81
2023/05/15 06:02:23;;;;;;;4.57;3.67;;;;;;;13.72;nan;99192.25;5067872;28;20320;-81
2023/05/15 06:04:48;;;;;;;5.00;2.70;;;;;;;13.76;nan;99195.47;5067095;28;20223;-80
2023/05/15 06:07:14;;;;;;;4.57;3.43;;;;;;;13.79;nan;99203.97;5067461;28;20303;-80
2023/05/15 06:09:39;;;;;;;3.43;3.13;;;;;;;13.82;nan;99201.06;5065457;28;20239;-80
2023/05/15 06:12:07;;;;;;;3.93;2.93;;;;;;;13.85;nan;99211.38;5064798;28;20231;-80
2023/05/15 06:14:32;;;;;;;6.22;3.72;;;;;;;13.87;nan;99204.16;5068571;28;20583;-80
2023/05/15 06:16:59;;;;;;;4.20;3.90;;;;;;;13.94;nan;99209.78;5065776;28;20437;-80
2023/05/15 06:19:25;;;;;;;3.38;2.95;;;;;;;14.01;nan;99210.09;5066423;28;20239;-80
2023/05/15 06:21:50;;;;;;;3.77;3.37;;;;;;;14.04;nan;99210.69;5067553;28;20208;-80
2023/05/15 06:24:15;;;;;;;3.47;3.10;;;;;;;14.06;nan;99207.91;5066126;28;20290;-80
2023/05/15 06:26:41;;;;;;;4.33;3.40;;;;;;;14.09;nan;99211.09;5070004;28;20215;-80
2023/05/15 06:29:06;;;;;;;4.10;3.40;;;;;;;14.14;nan;99208.06;5057943;28;20583;-80
2023/05/15 06:31:32;;;;;;;3.57;3.23;;;;;;;14.18;nan;99212.16;5068578;28;20238;-80
2023/05/15 06:33:57;;;;;;;5.73;3.50;;;;;;;14.25;nan;99220.38;5069353;28;20281;-80
2023/05/15 06:36:22;;;;;;;3.53;3.23;;;;;;;14.29;nan;99213.88;5069380;28;20212;-80
2023/05/15 06:38:48;;;;;;;4.63;3.90;;;;;;;14.35;nan;99214.19;5071568;28;20494;-80
2023/05/15 06:41:13;;;;;;;5.50;3.67;;;;;;;14.43;nan;99208.25;5070683;28;20704;-80
2023/05/15 06:43:39;;;;;;;7.80;3.60;;;;;;;14.50;nan;99206.75;5070668;28;20276;-81
2023/05/15 06:46:04;;;;;;;3.40;3.10;;;;;;;14.59;nan;99208.63;5056992;28;20422;-80
2023/05/15 06:48:29;;;;;;;6.90;4.70;;;;;;;14.64;nan;99204.75;5068023;28;20223;-80
2023/05/15 06:50:55;;;;;;;5.97;4.73;;;;;;;14.71;nan;99208.53;5059086;28;20216;-80
2023/05/15 06:53:20;;;;;;;6.90;5.00;;;;;;;14.75;nan;99207.28;5067863;28;20235;-79
2023/05/15 06:55:46;;;;;;;6.20;5.23;;;;;;;14.80;nan;99205.91;5068708;28;20247;-79
2023/05/15 06:58:11;;;;;;;7.27;5.00;;;;;;;14.86;nan;99212.47;5069854;28;20223;-79
2023/05/15 07:00:36;;;;;;;9.93;5.20;;;;;;;14.88;nan;99209.69;5067070;28;20231;-80
2023/05/15 07:03:02;;;;;;;5.37;4.57;;;;;;;14.96;nan;99216.00;5069023;28;20220;-80
2023/05/15 07:05:28;;;;;;;6.43;5.53;;;;;;;15.03;nan;99211.81;5068784;28;20222;-80
2023/05/15 07:07:53;;;;;;;6.90;4.83;;;;;;;15.12;nan;99215.47;5068591;28;20231;-80
2023/05/15 07:10:19;;;;;;;6.30;5.70;;;;;;;15.23;nan;99209.22;5067686;28;20231;-80
2023/05/15 07:12:44;;;;;;;8.00;5.80;;;;;;;15.29;nan;99206.03;5067999;28;20604;-79
2023/05/15 07:15:10;;;;;;;8.10;5.00;;;;;;;15.33;nan;99204.75;5065024;28;20308;-80
2023/05/15 07:17:36;;;;;;;6.50;5.20;;;;;;;15.35;nan;99209.94;5065302;28;20400;-80
2023/05/15 07:20:01;;;;;;;7.30;4.73;;;;;;;15.42;nan;99211.91;5069913;28;20306;-79
2023/05/15 07:22:27;;;;;;;10.17;5.90;;;;;;;15.50;nan;99211.19;5065386;28;20213;-80
2023/05/15 07:24:53;;;;;;;6.07;5.18;;;;;;;15.56;nan;99210.63;5064633;28;20429;-80
2023/05/15 07:27:18;;;;;;;5.90;5.40;;;;;;;15.62;nan;99219.84;5065488;28;20220;-80
2023/05/15 07:29:44;;;;;;;6.03;4.67;;;;;;;15.77;nan;99207.03;5068898;28;20221;-80
2023/05/15 07:32:09;;;;;;;8.40;5.47;;;;;;;16.04;nan;99209.81;5066838;28;20222;-80
2023/05/15 07:34:34;;;;;;;5.30;4.80;;;;;;;16.41;nan;99201.03;5067504;28;20490;-80
2023/05/15 07:37:00;;;;;;;6.23;5.70;;;;;;;16.88;nan;99205.50;5052705;28;20473;-80
2023/05/15 07:39:25;;;;;;;8.93;5.07;;;;;;;17.32;nan;99200.34;5067088;28;20228;-80
2023/05/15 07:41:50;;;;;;;5.00;4.60;;;;;;;17.61;nan;99197.47;5066756;28;20267;-80
2023/05/15 07:44:16;;;;;;;5.37;4.53;;;;;;;17.84;nan;99198.66;5071945;28;20226;-81
2023/05/15 07:46:41;;;;;;;5.20;4.70;;;;;;;18.11;nan;99194.19;5070629;28;20825;-81
2023/05/15 07:49:06;;;;;;;5.80;5.13;;;;;;;18.60;nan;99194.47;5069435;28;20240;-81
2023/05/15 07:51:32;;;;;;;8.50;6.20;;;;;;;19.03;nan;99187.34;5070332;28;20226;-81
2023/05/15 07:53:57;;;;;;;8.53;5.57;;;;;;;19.52;nan;99190.09;5072894;28;20222;-80
2023/05/15 07:56:23;;;;;;;6.73;5.40;;;;;;;19.70;nan;99182.00;5070423;28;20538;-80
2023/05/15 07:58:48;;;;;;;4.90;4.40;;;;;;;19.60;nan;99182.13;5071784;28;20239;-81
2023/05/15 08:01:13;;;;;;;5.97;5.43;;;;;;;19.65;nan;99174.47;5069937;28;20223;-81
2023/05/15 08:03:39;;;;;;;6.23;4.90;;;;;;;19.71;nan;99182.81;5070634;28;20227;-81
2023/05/15 08:06:06;;;;;;;5.73;4.43;;;;;;;19.73;nan;99178.16;5070730;28;20231;-81
2023/05/15 08:08:31;;;;;;;8.27;4.90;;;;;;;19.68;nan;99183.97;5117049;22;21452;-79
2023/05/15 08:10:56;;;;;;;4.80;4.40;;;;;;;19.42;nan;99186.78;5052490;28;20602;-81
2023/05/15 08:13:22;;;;;;;5.63;5.03;;;;;;;19.18;nan;99180.41;5045603;28;20219;-81
2023/05/15 08:15:47;;;;;;;6.60;5.17;;;;;;;18.95;nan;99190.81;5077879;28;20230;-81
2023/05/15 08:18:12;;;;;;;5.87;5.30;;;;;;;18.75;nan;99189.44;5076978;28;20225;-81
2023/05/15 08:20:38;;;;;;;5.50;5.00;;;;;;;18.57;nan;99189.47;5065991;28;20227;-81
2023/05/15 08:23:03;;;;;;;5.93;5.43;;;;;;;18.43;nan;99187.41;5064918;28;20223;-81
2023/05/15 08:25:29;;;;;;;6.20;5.13;;;;;;;18.35;nan;99183.72;5063911;28;20239;-81
2023/05/15 08:27:54;;;;;;;5.40;4.90;;;;;;;18.29;nan;99195.00;5062801;28;20277;-81
2023/05/15 08:30:20;;;;;;;6.50;5.90;;;;;;;18.28;nan;99184.50;5065191;28;20235;-81
2023/05/15 08:32:46;;;;;;;6.00;5.40;;;;;;;18.24;nan;99193.78;5063916;28;20228;-81
2023/05/15 08:35:11;;;;;;;6.90;6.20;;;;;;;18.16;nan;99183.94;5062436;28;20536;-80
2023/05/15 08:37:36;;;;;;;5.40;4.70;;;;;;;18.10;nan;99188.06;5059446;28;20213;-81
2023/05/15 08:40:06;;;;;;;11.27;5.30;;;;;;;18.03;nan;99180.88;5060019;28;20285;-81
2023/05/15 08:42:41;;;;;;;7.23;5.50;;;;;;;18.02;nan;99176.53;5060912;28;20899;-81
2023/05/15 08:45:08;;;;;;;5.80;4.93;;;;;;;17.96;nan;99188.63;5043018;28;20985;-80
2023/05/15 08:47:38;;;;;;;7.00;5.23;;;;;;;17.95;nan;99176.31;5060671;28;20831;-81
2023/05/15 08:50:05;;;;;;;7.23;6.53;;;;;;;17.97;nan;99181.50;5061604;28;20485;-81
2023/05/15 08:52:34;;;;;;;7.33;6.63;;;;;;;17.99;nan;99187.50;5061639;28;20835;-81
2023/05/15 08:55:00;;;;;;;6.87;6.23;;;;;;;18.05;nan;99179.72;5062224;28;21004;-81
2023/05/15 08:57:27;;;;;;;6.50;5.80;;;;;;;18.04;nan;99179.88;5059387;28;20986;-81
2023/05/15 08:59:53;;;;;;;7.27;5.80;;;;;;;18.06;nan;99172.56;5064457;28;20591;-81
2023/05/15 09:02:19;;;;;;;6.73;5.67;;;;;;;18.02;nan;99179.19;5060849;28;20757;-81
2023/05/15 09:04:45;;;;;;;6.93;6.23;;;;;;;17.96;nan;99179.81;5061782;28;20490;-81
2023/05/15 09:07:12;;;;;;;6.97;6.00;;;;;;;17.96;nan;99175.34;5059589;28;20521;-81
2023/05/15 09:09:39;;;;;;;6.10;5.50;;;;;;;17.97;nan;99176.19;5040916;28;20502;-80
2023/05/15 09:12:09;;;;;;;7.13;5.90;;;;;;;18.00;nan;99178.53;5059858;28;20493;-81
2023/05/15 09:14:35;;;;;;;8.37;7.30;;;;;;;18.04;nan;99174.56;5056544;28;20707;-81
2023/05/15 09:17:00;;;;;;;11.00;6.27;;;;;;;18.09;nan;99172.25;5059028;28;20698;-81
2023/05/15 09:19:26;;;;;;;6.40;5.80;;;;;;;18.12;nan;99174.63;5041570;28;20228;-81
2023/05/15 09:21:51;;;;;;;8.83;6.80;;;;;;;18.15;nan;99176.97;5059228;28;20215;-81
2023/05/15 09:24:23;;;;;;;9.40;7.07;;;;;;;18.13;nan;99176.28;5058761;28;20466;-80
2023/05/15 09:27:06;;;;;;;7.47;6.77;;;;;;;18.18;nan;99173.16;5041526;28;20216;-80
2023/05/15 09:29:33;;;;;;;6.83;5.90;;;;;;;18.23;nan;99176.19;5059142;28;20626;-81
2023/05/15 09:32:02;;;;;;;8.53;6.93;;;;;;;18.26;nan;99174.03;5059865;28;20483;-81
2023/05/15 09:34:36;;;;;;;8.30;6.90;;;;;;;18.23;nan;99169.03;5061129;28;21077;-81
2023/05/15 09:37:03;;;;;;;10.43;6.40;;;;;;;18.26;nan;99165.22;5060006;28;20223;-81
2023/05/15 09:39:29;;;;;;;7.00;6.40;;;;;;;18.38;nan;99166.63;5056397;28;20490;-81
2023/05/15 09:42:08;;;;;;;6.87;6.17;;;;;;;18.50;nan;99161.88;5060008;28;20489;-81
2023/05/15 09:44:34;;;;;;;9.13;5.80;;;;;;;18.70;nan;99160.59;5056515;28;20217;-79
2023/05/15 09:47:01;;;;;;;7.40;6.63;;;;;;;18.94;nan;99151.06;5051485;28;21076;-78
2023/05/15 09:49:28;;;;;;;8.00;6.70;;;;;;;19.19;nan;99160.78;5055515;28;20553;-78
2023/05/15 09:51:57;;;;;;;7.43;6.10;;;;;;;19.44;nan;99145.66;5054040;28;20909;-79
2023/05/15 09:54:23;;;;;;;7.67;6.97;;;;;;;19.82;nan;99142.50;5050625;28;20469;-78
2023/05/15 09:56:48;;;;;;;7.70;6.90;;;;;;;19.93;nan;99142.19;5052194;28;20500;-78
2023/05/15 09:59:20;;;;;;;7.60;6.80;;;;;;;19.96;nan;99139.16;5053711;28;20481;-79
2023/05/15 10:01:48;;;;;;;6.23;5.60;;;;;;;19.98;nan;99139.84;5052818;28;20551;-78
2023/05/15 10:04:13;;;;;;;7.73;6.87;;;;;;;20.09;nan;99135.94;5055462;28;20520;-79
2023/05/15 10:06:45;;;;;;;7.20;5.97;;;;;;;20.23;nan;99134.44;5053878;28;20477;-78
2023/05/15 10:09:13;;;;;;;6.23;5.63;;;;;;;20.44;nan;99126.72;5056108;28;20617;-78
2023/05/15 10:11:49;;;;;;;6.97;5.63;;;;;;;20.70;nan;99120.28;5050667;28;20479;-79
2023/05/15 10:14:15;;;;;;;8.37;4.60;;;;;;;20.84;nan;99111.50;5052542;28;20476;-79
2023/05/15 10:16:41;;;;;;;7.97;5.10;;;;;;;20.94;nan;99109.44;5055559;28;20861;-79
2023/05/15 10:19:09;;;;;;;8.13;5.70;;;;;;;20.95;nan;99103.13;5054141;28;20483;-78
2023/05/15 10:21:37;;;;;;;8.33;4.90;;;;;;;20.88;nan;99098.66;5051698;28;20948;-78
2023/05/15 10:24:06;;;;;;;8.53;5.70;;;;;;;20.90;nan;99097.47;5056641;28;20480;-78
2023/05/15 10:26:39;;;;;;;4.37;3.97;;;;;;;20.95;nan;99089.78;5052966;28;20475;-78
2023/05/15 10:29:12;;;;;;;4.17;3.77;;;;;;;21.14;nan;99095.63;5050006;28;20500;-78
2023/05/15 10:31:39;;;;;;;4.80;4.10;;;;;;;21.28;nan;99091.34;5050396;28;20491;-78
2023/05/15 10:34:05;;;;;;;5.03;4.10;;;;;;;21.32;nan;99084.66;5051406;28;20530;-78
2023/05/15 10:36:32;;;;;;;7.23;4.90;;;;;;;21.38;nan;99084.78;5047142;28;20510;-78
2023/05/15 10:39:05;;;;;;;4.00;3.70;;;;;;;21.51;nan;99081.50;5052220;28;20482;-78
2023/05/15 10:41:39;;;;;;;4.83;3.73;;;;;;;21.45;nan;99079.56;5054048;28;20917;-78
2023/05/15 10:44:05;;;;;;;4.47;4.00;;;;;;;21.49;nan;99080.84;5054689;28;20471;-79
2023/05/15 10:46:33;;;;;;;4.77;3.60;;;;;;;21.66;nan;99070.88;5052436;28;20554;-80
2023/05/15 10:49:00;;;;;;;6.50;3.97;;;;;;;21.69;nan;99075.00;5036310;28;20478;-80
2023/05/15 10:51:30;;;;;;;5.03;4.00;;;;;;;21.72;nan;99072.81;5056224;28;20923;-81
2023/05/15 10:53:56;;;;;;;5.10;3.57;;;;;;;21.68;nan;99068.00;5057224;28;20514;-81
2023/05/15 10:56:28;;;;;;;5.90;3.90;;;;;;;21.72;nan;99067.44;5053469;28;20523;-80
2023/05/15 10:58:54;;;;;;;3.67;3.20;;;;;;;21.82;nan;99068.03;5055763;28;20507;-80
2023/05/15 11:01:34;;;;;;;4.30;3.90;;;;;;;21.85;nan;99067.66;5057088;28;20472;-81
2023/05/15 11:04:09;;;;;;;4.60;3.90;;;;;;;21.87;nan;99060.28;5055645;28;20479;-78
2023/05/15 11:06:36;;;;;;;5.40;3.50;;;;;;;21.78;nan;99057.88;5050883;28;20461;-78
2023/05/15 11:09:20;;;;;;;4.93;4.53;;;;;;;21.69;nan;99053.63;5050721;28;20518;-79
2023/05/15 11:11:55;;;;;;;4.63;4.20;;;;;;;21.67;nan;99047.63;5053425;28;20482;-79
2023/05/15 11:14:50;;;;;;;4.40;3.90;;;;;;;21.63;nan;99052.53;5055691;28;20462;-79
2023/05/15 11:17:16;;;;;;;4.37;3.97;;;;;;;21.61;nan;99046.53;5023456;28;20484;-79
2023/05/15 11:19:47;;;;;;;4.90;4.37;;;;;;;21.83;nan;99040.25;5056795;28;20858;-78
2023/05/15 11:22:13;;;;;;;5.50;5.00;;;;;;;22.07;nan;99038.31;5055028;28;20473;-78
2023/05/15 11:24:54;;;;;;;7.17;5.10;;;;;;;22.18;nan;99032.53;5057564;28;20842;-79
2023/05/15 11:27:25;;;;;;;5.63;5.10;;;;;;;22.19;nan;99026.16;5053128;28;20220;-79
2023/05/15 11:30:16;;;;;;;4.73;4.33;;;;;;;22.15;nan;99024.03;5056511;28;20506;-81
2023/05/15 11:33:02;;;;;;;6.53;5.97;;;;;;;22.18;nan;99013.81;5059145;28;20575;-81
2023/05/15 11:35:45;;;;;;;4.90;4.50;;;;;;;22.32;nan;99020.16;5060151;28;20447;-81
2023/05/15 11:38:15;;;;;;;6.67;4.87;;;;;;;22.36;nan;99010.75;5057015;28;20454;-78
2023/05/15 11:40:45;;;;;;;5.53;5.03;;;;;;;22.37;nan;99008.88;5062228;28;20924;-79
2023/05/15 11:43:20;;;;;;;5.30;4.90;;;;;;;22.54;nan;99011.13;5058512;28;20471;-79
2023/05/15 11:45:47;;;;;;;5.43;4.60;;;;;;;22.80;nan;99014.28;5059765;28;20953;-78
2023/05/15 11:48:15;;;;;;;6.70;5.73;;;;;;;22.74;nan;99019.38;5057291;28;20475;-79
2023/05/15 11:50:41;;;;;;;5.77;5.17;;;;;;;22.63;nan;99009.19;5059452;28;20884;-79
2023/05/15 11:53:08;;;;;;;5.20;4.70;;;;;;;22.50;nan;99003.69;5061733;28;20476;-79